sensor_id;sensor_type;location;lat;lon;timestamp;pressure;altitude;pressure_sealevel;temperature;humidity
30343;BME280;17145;49.902;8.680;'2023-04-03 01:58:34';101100;;;5;44
30343;BME280;17145;49.902;8.680;'2023-04-03 02:01:01';101100;;;5;44
30343;BME280;17145;49.902;8.680;'2023-04-03 02:03:29';101100;;;5;44
30343;BME280;17145;49.902;8.680;'2023-04-03 02:05:57';101100;;;5;44
30343;BME280;17145;49.902;8.680;'2023-04-03 02:08:25';101100;;;5;44
30343;BME280;17145;49.902;8.680;'2023-04-03 02:10:52';101100;;;5;44
30343;BME280;17145;49.902;8.680;'2023-04-03 02:13:20';101100;;;5;44
30343;BME280;17145;49.902;8.680;'2023-04-03 02:15:47';101100;;;5;44
30343;BME280;17145;49.902;8.680;'2023-04-03 02:18:15';101100;;;5;44
30343;BME280;17145;49.902;8.680;'2023-04-03 02:20:43';101100;;;5;44
30343;BME280;17145;49.902;8.680;'2023-04-03 02:23:11';101100;;;5;44
30343;BME280;17145;49.902;8.680;'2023-04-03 02:25:38';101100;;;5;44
30343;BME280;17145;49.902;8.680;'2023-04-03 02:28:06';101100;;;5;44
30343;BME280;17145;49.902;8.680;'2023-04-03 02:30:34';101100;;;5;44
30343;BME280;17145;49.902;8.680;'2023-04-03 02:33:02';101100;;;5;44
30343;BME280;17145;49.902;8.680;'2023-04-03 02:35:30';101100;;;5;44
30343;BME280;17145;49.902;8.680;'2023-04-03 02:37:58';101100;;;5;45
30343;BME280;17145;49.902;8.680;'2023-04-03 02:40:26';101100;;;4;45
30343;BME280;17145;49.902;8.680;'2023-04-03 02:42:57';101110;;;4;45
30343;BME280;17145;49.902;8.680;'2023-04-03 02:45:35';101110;;;5;45
30343;BME280;17145;49.902;8.680;'2023-04-03 02:48:05';101110;;;4;45
30343;BME280;17145;49.902;8.680;'2023-04-03 02:50:35';101120;;;4;45
30343;BME280;17145;49.902;8.680;'2023-04-03 02:53:04';101110;;;4;45
30343;BME280;17145;49.902;8.680;'2023-04-03 02:55:33';101120;;;4;45
30343;BME280;17145;49.902;8.680;'2023-04-03 02:58:02';101120;;;4;45
30343;BME280;17145;49.902;8.680;'2023-04-03 03:00:30';101120;;;5;45
30343;BME280;17145;49.902;8.680;'2023-04-03 03:02:58';101120;;;4;46
30343;BME280;17145;49.902;8.680;'2023-04-03 03:05:25';101120;;;4;46
30343;BME280;17145;49.902;8.680;'2023-04-03 03:07:53';101120;;;4;46
30343;BME280;17145;49.902;8.680;'2023-04-03 03:10:21';101120;;;4;46
30343;BME280;17145;49.902;8.680;'2023-04-03 03:12:51';101120;;;4;46
30343;BME280;17145;49.902;8.680;'2023-04-03 03:15:22';101120;;;4;46
30343;BME280;17145;49.902;8.680;'2023-04-03 03:17:52';101110;;;4;46
30343;BME280;17145;49.902;8.680;'2023-04-03 03:20:36';101120;;;4;46
30343;BME280;17145;49.902;8.680;'2023-04-03 03:23:13';101110;;;4;46
30343;BME280;17145;49.902;8.680;'2023-04-03 03:25:44';101110;;;4;46
30343;BME280;17145;49.902;8.680;'2023-04-03 03:28:14';101120;;;4;46
30343;BME280;17145;49.902;8.680;'2023-04-03 03:30:49';101120;;;4;46
30343;BME280;17145;49.902;8.680;'2023-04-03 03:33:17';101120;;;4;46
30343;BME280;17145;49.902;8.680;'2023-04-03 03:35:44';101120;;;4;46
30343;BME280;17145;49.902;8.680;'2023-04-03 03:38:12';101120;;;4;46
30343;BME280;17145;49.902;8.680;'2023-04-03 03:40:39';101120;;;4;46
30343;BME280;17145;49.902;8.680;'2023-04-03 03:43:07';101120;;;4;46
30343;BME280;17145;49.902;8.680;'2023-04-03 03:45:35';101120;;;4;46
30343;BME280;17145;49.902;8.680;'2023-04-03 03:48:03';101120;;;5;46
30343;BME280;17145;49.902;8.680;'2023-04-03 03:50:31';101120;;;5;46
30343;BME280;17145;49.902;8.680;'2023-04-03 03:52:58';101120;;;4;45
30343;BME280;17145;49.902;8.680;'2023-04-03 03:55:26';101120;;;5;45
30343;BME280;17145;49.902;8.680;'2023-04-03 03:57:54';101120;;;4;45
30343;BME280;17145;49.902;8.680;'2023-04-03 04:00:21';101120;;;5;46
30343;BME280;17145;49.902;8.680;'2023-04-03 04:02:49';101120;;;4;45
30343;BME280;17145;49.902;8.680;'2023-04-03 04:05:16';101120;;;5;45
30343;BME280;17145;49.902;8.680;'2023-04-03 04:07:44';101120;;;4;46
30343;BME280;17145;49.902;8.680;'2023-04-03 04:10:13';101120;;;5;46
30343;BME280;17145;49.902;8.680;'2023-04-03 04:12:40';101130;;;5;46
30343;BME280;17145;49.902;8.680;'2023-04-03 04:15:08';101120;;;4;46
30343;BME280;17145;49.902;8.680;'2023-04-03 04:17:36';101120;;;4;46
30343;BME280;17145;49.902;8.680;'2023-04-03 04:20:04';101120;;;4;46
30343;BME280;17145;49.902;8.680;'2023-04-03 04:22:32';101120;;;4;46
30343;BME280;17145;49.902;8.680;'2023-04-03 04:25:00';101120;;;4;46
30343;BME280;17145;49.902;8.680;'2023-04-03 04:27:27';101120;;;4;46
30343;BME280;17145;49.902;8.680;'2023-04-03 04:29:54';101120;;;4;46
30343;BME280;17145;49.902;8.680;'2023-04-03 04:32:22';101120;;;4;46
30343;BME280;17145;49.902;8.680;'2023-04-03 04:34:49';101120;;;5;46
30343;BME280;17145;49.902;8.680;'2023-04-03 04:37:17';101120;;;4;46
30343;BME280;17145;49.902;8.680;'2023-04-03 04:39:45';101120;;;4;46
30343;BME280;17145;49.902;8.680;'2023-04-03 04:42:12';101120;;;4;46
30343;BME280;17145;49.902;8.680;'2023-04-03 04:44:40';101120;;;4;46
30343;BME280;17145;49.902;8.680;'2023-04-03 04:47:08';101120;;;4;46
30343;BME280;17145;49.902;8.680;'2023-04-03 04:49:35';101120;;;4;46
30343;BME280;17145;49.902;8.680;'2023-04-03 04:52:03';101120;;;4;46
30343;BME280;17145;49.902;8.680;'2023-04-03 04:54:30';101120;;;4;46
30343;BME280;17145;49.902;8.680;'2023-04-03 04:56:58';101120;;;4;46
30343;BME280;17145;49.902;8.680;'2023-04-03 04:59:26';101110;;;4;46
30343;BME280;17145;49.902;8.680;'2023-04-03 05:01:53';101110;;;4;46
30343;BME280;17145;49.902;8.680;'2023-04-03 05:04:22';101120;;;4;46
30343;BME280;17145;49.902;8.680;'2023-04-03 05:06:49';101120;;;4;46
30343;BME280;17145;49.902;8.680;'2023-04-03 05:09:17';101120;;;4;46
30343;BME280;17145;49.902;8.680;'2023-04-03 05:11:44';101120;;;4;46
30343;BME280;17145;49.902;8.680;'2023-04-03 05:14:12';101110;;;4;47
30343;BME280;17145;49.902;8.680;'2023-04-03 05:16:39';101110;;;4;46
30343;BME280;17145;49.902;8.680;'2023-04-03 05:19:06';101110;;;4;46
30343;BME280;17145;49.902;8.680;'2023-04-03 05:21:34';101110;;;4;46
30343;BME280;17145;49.902;8.680;'2023-04-03 05:24:01';101110;;;4;47
30343;BME280;17145;49.902;8.680;'2023-04-03 05:26:29';101110;;;4;46
30343;BME280;17145;49.902;8.680;'2023-04-03 05:28:56';101110;;;4;46
30343;BME280;17145;49.902;8.680;'2023-04-03 05:31:24';101110;;;4;46
30343;BME280;17145;49.902;8.680;'2023-04-03 05:33:51';101110;;;4;47
30343;BME280;17145;49.902;8.680;'2023-04-03 05:36:19';101110;;;4;47
30343;BME280;17145;49.902;8.680;'2023-04-03 05:38:46';101110;;;4;47
30343;BME280;17145;49.902;8.680;'2023-04-03 05:41:14';101110;;;4;47
30343;BME280;17145;49.902;8.680;'2023-04-03 05:43:41';101110;;;4;47
30343;BME280;17145;49.902;8.680;'2023-04-03 05:46:09';101110;;;4;47
30343;BME280;17145;49.902;8.680;'2023-04-03 05:48:37';101110;;;4;47
30343;BME280;17145;49.902;8.680;'2023-04-03 05:51:05';101110;;;4;47
30343;BME280;17145;49.902;8.680;'2023-04-03 05:53:32';101110;;;4;47
30343;BME280;17145;49.902;8.680;'2023-04-03 05:56:00';101120;;;4;47
30343;BME280;17145;49.902;8.680;'2023-04-03 05:58:28';101120;;;4;47
30343;BME280;17145;49.902;8.680;'2023-04-03 06:00:55';101120;;;4;47
30343;BME280;17145;49.902;8.680;'2023-04-03 06:03:23';101120;;;4;47
30343;BME280;17145;49.902;8.680;'2023-04-03 06:05:51';101120;;;4;47
30343;BME280;17145;49.902;8.680;'2023-04-03 06:08:18';101120;;;4;47
30343;BME280;17145;49.902;8.680;'2023-04-03 06:10:46';101130;;;4;47
30343;BME280;17145;49.902;8.680;'2023-04-03 06:13:13';101130;;;4;48
30343;BME280;17145;49.902;8.680;'2023-04-03 06:15:42';101130;;;4;48
30343;BME280;17145;49.902;8.680;'2023-04-03 06:18:10';101130;;;4;47
30343;BME280;17145;49.902;8.680;'2023-04-03 06:20:37';101130;;;4;47
30343;BME280;17145;49.902;8.680;'2023-04-03 06:23:05';101120;;;4;47
30343;BME280;17145;49.902;8.680;'2023-04-03 06:25:32';101120;;;4;48
30343;BME280;17145;49.902;8.680;'2023-04-03 06:28:01';101120;;;4;48
30343;BME280;17145;49.902;8.680;'2023-04-03 06:30:28';101120;;;4;48
30343;BME280;17145;49.902;8.680;'2023-04-03 06:32:56';101120;;;4;47
30343;BME280;17145;49.902;8.680;'2023-04-03 06:35:23';101120;;;4;47
30343;BME280;17145;49.902;8.680;'2023-04-03 06:37:51';101120;;;4;47
30343;BME280;17145;49.902;8.680;'2023-04-03 06:40:18';101130;;;4;47
30343;BME280;17145;49.902;8.680;'2023-04-03 06:42:46';101120;;;4;47
30343;BME280;17145;49.902;8.680;'2023-04-03 06:45:13';101120;;;4;47
30343;BME280;17145;49.902;8.680;'2023-04-03 06:47:41';101120;;;3;47
30343;BME280;17145;49.902;8.680;'2023-04-03 06:50:10';101120;;;4;47
30343;BME280;17145;49.902;8.680;'2023-04-03 06:52:38';101120;;;4;47
30343;BME280;17145;49.902;8.680;'2023-04-03 06:55:06';101130;;;4;47
30343;BME280;17145;49.902;8.680;'2023-04-03 06:57:34';101130;;;4;47
30343;BME280;17145;49.902;8.680;'2023-04-03 07:00:02';101140;;;4;47
30343;BME280;17145;49.902;8.680;'2023-04-03 07:02:29';101140;;;4;47
30343;BME280;17145;49.902;8.680;'2023-04-03 07:04:57';101140;;;4;47
30343;BME280;17145;49.902;8.680;'2023-04-03 07:07:24';101140;;;4;47
30343;BME280;17145;49.902;8.680;'2023-04-03 07:09:52';101150;;;4;47
30343;BME280;17145;49.902;8.680;'2023-04-03 07:12:19';101150;;;4;47
30343;BME280;17145;49.902;8.680;'2023-04-03 07:14:46';101150;;;4;47
30343;BME280;17145;49.902;8.680;'2023-04-03 07:17:14';101160;;;4;47
30343;BME280;17145;49.902;8.680;'2023-04-03 07:19:42';101150;;;4;47
30343;BME280;17145;49.902;8.680;'2023-04-03 07:22:09';101160;;;4;47
30343;BME280;17145;49.902;8.680;'2023-04-03 07:24:37';101160;;;4;47
30343;BME280;17145;49.902;8.680;'2023-04-03 07:27:04';101160;;;4;46
30343;BME280;17145;49.902;8.680;'2023-04-03 07:29:32';101160;;;4;47
30343;BME280;17145;49.902;8.680;'2023-04-03 07:31:59';101160;;;4;47
30343;BME280;17145;49.902;8.680;'2023-04-03 07:34:26';101160;;;4;46
30343;BME280;17145;49.902;8.680;'2023-04-03 07:36:54';101170;;;4;46
30343;BME280;17145;49.902;8.680;'2023-04-03 07:39:21';101170;;;4;46
30343;BME280;17145;49.902;8.680;'2023-04-03 07:41:49';101170;;;4;46
30343;BME280;17145;49.902;8.680;'2023-04-03 07:44:16';101170;;;4;46
30343;BME280;17145;49.902;8.680;'2023-04-03 07:46:44';101170;;;4;46
30343;BME280;17145;49.902;8.680;'2023-04-03 07:49:11';101170;;;3;46
30343;BME280;17145;49.902;8.680;'2023-04-03 07:51:39';101170;;;4;46
30343;BME280;17145;49.902;8.680;'2023-04-03 07:54:13';101180;;;4;46
30343;BME280;17145;49.902;8.680;'2023-04-03 07:56:41';101180;;;4;46
30343;BME280;17145;49.902;8.680;'2023-04-03 07:59:08';101180;;;4;45
30343;BME280;17145;49.902;8.680;'2023-04-03 08:01:35';101190;;;4;45
30343;BME280;17145;49.902;8.680;'2023-04-03 08:04:03';101190;;;4;45
30343;BME280;17145;49.902;8.680;'2023-04-03 08:06:43';101200;;;4;46
30343;BME280;17145;49.902;8.680;'2023-04-03 08:09:11';101200;;;4;45
30343;BME280;17145;49.902;8.680;'2023-04-03 08:11:38';101200;;;4;45
30343;BME280;17145;49.902;8.680;'2023-04-03 08:14:06';101200;;;4;45
30343;BME280;17145;49.902;8.680;'2023-04-03 08:16:34';101200;;;4;45
30343;BME280;17145;49.902;8.680;'2023-04-03 08:19:02';101200;;;4;45
30343;BME280;17145;49.902;8.680;'2023-04-03 08:21:29';101210;;;4;45
30343;BME280;17145;49.902;8.680;'2023-04-03 08:23:57';101210;;;4;45
30343;BME280;17145;49.902;8.680;'2023-04-03 08:26:25';101210;;;4;45
30343;BME280;17145;49.902;8.680;'2023-04-03 08:28:52';101210;;;4;45
30343;BME280;17145;49.902;8.680;'2023-04-03 08:31:19';101210;;;4;45
30343;BME280;17145;49.902;8.680;'2023-04-03 08:33:47';101220;;;4;45
30343;BME280;17145;49.902;8.680;'2023-04-03 08:36:15';101220;;;4;45
30343;BME280;17145;49.902;8.680;'2023-04-03 08:38:42';101220;;;4;45
30343;BME280;17145;49.902;8.680;'2023-04-03 08:41:10';101220;;;4;44
30343;BME280;17145;49.902;8.680;'2023-04-03 08:43:38';101220;;;4;44
30343;BME280;17145;49.902;8.680;'2023-04-03 08:46:05';101230;;;4;44
30343;BME280;17145;49.902;8.680;'2023-04-03 08:48:33';101230;;;4;44
30343;BME280;17145;49.902;8.680;'2023-04-03 08:51:00';101230;;;4;44
30343;BME280;17145;49.902;8.680;'2023-04-03 08:53:28';101230;;;4;44
30343;BME280;17145;49.902;8.680;'2023-04-03 08:55:55';101230;;;4;44
30343;BME280;17145;49.902;8.680;'2023-04-03 08:58:22';101230;;;4;44
30343;BME280;17145;49.902;8.680;'2023-04-03 09:00:51';101230;;;4;44
30343;BME280;17145;49.902;8.680;'2023-04-03 09:03:18';101240;;;4;44
30343;BME280;17145;49.902;8.680;'2023-04-03 09:05:45';101240;;;4;44
30343;BME280;17145;49.902;8.680;'2023-04-03 09:08:13';101240;;;4;44
30343;BME280;17145;49.902;8.680;'2023-04-03 09:10:40';101240;;;4;43
30343;BME280;17145;49.902;8.680;'2023-04-03 09:13:08';101240;;;4;43
30343;BME280;17145;49.902;8.680;'2023-04-03 09:15:35';101240;;;4;43
30343;BME280;17145;49.902;8.680;'2023-04-03 09:18:02';101250;;;4;43
30343;BME280;17145;49.902;8.680;'2023-04-03 09:20:30';101250;;;4;43
30343;BME280;17145;49.902;8.680;'2023-04-03 09:22:57';101260;;;4;43
30343;BME280;17145;49.902;8.680;'2023-04-03 09:25:25';101260;;;4;43
30343;BME280;17145;49.902;8.680;'2023-04-03 09:27:52';101270;;;4;43
30343;BME280;17145;49.902;8.680;'2023-04-03 09:30:20';101260;;;4;42
30343;BME280;17145;49.902;8.680;'2023-04-03 09:32:47';101270;;;4;42
30343;BME280;17145;49.902;8.680;'2023-04-03 09:35:14';101270;;;4;43
30343;BME280;17145;49.902;8.680;'2023-04-03 09:37:42';101270;;;4;43
30343;BME280;17145;49.902;8.680;'2023-04-03 09:40:10';101270;;;5;42
30343;BME280;17145;49.902;8.680;'2023-04-03 09:42:38';101270;;;4;42
30343;BME280;17145;49.902;8.680;'2023-04-03 09:45:06';101280;;;4;41
30343;BME280;17145;49.902;8.680;'2023-04-03 09:47:33';101280;;;4;42
30343;BME280;17145;49.902;8.680;'2023-04-03 09:50:00';101280;;;5;41
30343;BME280;17145;49.902;8.680;'2023-04-03 09:52:28';101280;;;5;41
30343;BME280;17145;49.902;8.680;'2023-04-03 09:54:55';101280;;;5;41
30343;BME280;17145;49.902;8.680;'2023-04-03 09:57:23';101280;;;5;41
30343;BME280;17145;49.902;8.680;'2023-04-03 09:59:50';101280;;;5;41
30343;BME280;17145;49.902;8.680;'2023-04-03 10:02:18';101280;;;5;41
30343;BME280;17145;49.902;8.680;'2023-04-03 10:04:45';101280;;;5;41
30343;BME280;17145;49.902;8.680;'2023-04-03 10:07:13';101280;;;5;41
30343;BME280;17145;49.902;8.680;'2023-04-03 10:09:40';101280;;;5;41
30343;BME280;17145;49.902;8.680;'2023-04-03 10:12:07';101280;;;5;41
30343;BME280;17145;49.902;8.680;'2023-04-03 10:14:35';101280;;;5;41
30343;BME280;17145;49.902;8.680;'2023-04-03 10:17:03';101280;;;6;40
30343;BME280;17145;49.902;8.680;'2023-04-03 10:19:31';101280;;;5;39
30343;BME280;17145;49.902;8.680;'2023-04-03 10:21:58';101280;;;6;40
30343;BME280;17145;49.902;8.680;'2023-04-03 10:24:26';101280;;;5;40
30343;BME280;17145;49.902;8.680;'2023-04-03 10:26:53';101270;;;6;40
30343;BME280;17145;49.902;8.680;'2023-04-03 10:29:21';101280;;;5;39
30343;BME280;17145;49.902;8.680;'2023-04-03 10:31:48';101270;;;5;40
30343;BME280;17145;49.902;8.680;'2023-04-03 10:34:16';101270;;;5;40
30343;BME280;17145;49.902;8.680;'2023-04-03 10:36:44';101280;;;6;40
30343;BME280;17145;49.902;8.680;'2023-04-03 10:39:12';101270;;;5;40
30343;BME280;17145;49.902;8.680;'2023-04-03 10:41:42';101270;;;6;40
30343;BME280;17145;49.902;8.680;'2023-04-03 10:44:20';101270;;;5;39
30343;BME280;17145;49.902;8.680;'2023-04-03 10:47:01';101270;;;5;40
30343;BME280;17145;49.902;8.680;'2023-04-03 10:49:32';101270;;;6;40
30343;BME280;17145;49.902;8.680;'2023-04-03 10:52:03';101270;;;6;40
30343;BME280;17145;49.902;8.680;'2023-04-03 10:54:37';101260;;;6;39
30343;BME280;17145;49.902;8.680;'2023-04-03 10:57:05';101260;;;6;39
30343;BME280;17145;49.902;8.680;'2023-04-03 10:59:36';101270;;;6;38
30343;BME280;17145;49.902;8.680;'2023-04-03 11:02:18';101260;;;6;38
30343;BME280;17145;49.902;8.680;'2023-04-03 11:04:46';101270;;;6;38
30343;BME280;17145;49.902;8.680;'2023-04-03 11:07:21';101270;;;7;38
30343;BME280;17145;49.902;8.680;'2023-04-03 11:09:49';101270;;;7;37
30343;BME280;17145;49.902;8.680;'2023-04-03 11:12:22';101270;;;7;37
30343;BME280;17145;49.902;8.680;'2023-04-03 11:15:00';101270;;;7;37
30343;BME280;17145;49.902;8.680;'2023-04-03 11:17:40';101270;;;7;37
30343;BME280;17145;49.902;8.680;'2023-04-03 11:20:19';101270;;;7;37
30343;BME280;17145;49.902;8.680;'2023-04-03 11:22:46';101270;;;7;37
30343;BME280;17145;49.902;8.680;'2023-04-03 11:25:18';101270;;;7;37
30343;BME280;17145;49.902;8.680;'2023-04-03 11:27:46';101270;;;7;36
30343;BME280;17145;49.902;8.680;'2023-04-03 11:30:16';101260;;;7;36
30343;BME280;17145;49.902;8.680;'2023-04-03 11:32:46';101260;;;7;36
30343;BME280;17145;49.902;8.680;'2023-04-03 11:35:20';101260;;;7;35
30343;BME280;17145;49.902;8.680;'2023-04-03 11:37:49';101260;;;7;35
30343;BME280;17145;49.902;8.680;'2023-04-03 11:40:29';101260;;;7;35
30343;BME280;17145;49.902;8.680;'2023-04-03 11:42:58';101260;;;6;35
30343;BME280;17145;49.902;8.680;'2023-04-03 11:45:29';101250;;;7;35
30343;BME280;17145;49.902;8.680;'2023-04-03 11:48:08';101250;;;7;35
30343;BME280;17145;49.902;8.680;'2023-04-03 11:50:37';101250;;;7;35
30343;BME280;17145;49.902;8.680;'2023-04-03 11:53:07';101250;;;7;35
30343;BME280;17145;49.902;8.680;'2023-04-03 11:55:42';101250;;;7;36
30343;BME280;17145;49.902;8.680;'2023-04-03 11:58:25';101250;;;7;35
30343;BME280;17145;49.902;8.680;'2023-04-03 12:00:56';101250;;;7;35
30343;BME280;17145;49.902;8.680;'2023-04-03 12:03:28';101250;;;7;36
30343;BME280;17145;49.902;8.680;'2023-04-03 12:05:56';101240;;;8;35
30343;BME280;17145;49.902;8.680;'2023-04-03 12:08:29';101240;;;8;35
30343;BME280;17145;49.902;8.680;'2023-04-03 12:11:08';101240;;;8;34
30343;BME280;17145;49.902;8.680;'2023-04-03 12:13:41';101240;;;8;34
30343;BME280;17145;49.902;8.680;'2023-04-03 12:16:15';101240;;;8;33
30343;BME280;17145;49.902;8.680;'2023-04-03 12:18:49';101240;;;8;34
30343;BME280;17145;49.902;8.680;'2023-04-03 12:21:25';101240;;;8;33
30343;BME280;17145;49.902;8.680;'2023-04-03 12:24:02';101240;;;8;34
30343;BME280;17145;49.902;8.680;'2023-04-03 12:26:37';101230;;;8;33
30343;BME280;17145;49.902;8.680;'2023-04-03 12:29:16';101230;;;8;32
30343;BME280;17145;49.902;8.680;'2023-04-03 12:31:51';101230;;;8;33
30343;BME280;17145;49.902;8.680;'2023-04-03 12:34:28';101240;;;8;32
30343;BME280;17145;49.902;8.680;'2023-04-03 12:37:06';101230;;;8;32
30343;BME280;17145;49.902;8.680;'2023-04-03 12:39:43';101230;;;8;32
30343;BME280;17145;49.902;8.680;'2023-04-03 12:42:20';101220;;;8;32
30343;BME280;17145;49.902;8.680;'2023-04-03 12:45:01';101220;;;8;32
30343;BME280;17145;49.902;8.680;'2023-04-03 12:50:23';101230;;;8;32
30343;BME280;17145;49.902;8.680;'2023-04-03 12:53:02';101220;;;8;32
30343;BME280;17145;49.902;8.680;'2023-04-03 12:55:37';101220;;;8;32
30343;BME280;17145;49.902;8.680;'2023-04-03 12:58:11';101220;;;8;32
30343;BME280;17145;49.902;8.680;'2023-04-03 13:00:42';101220;;;9;32
30343;BME280;17145;49.902;8.680;'2023-04-03 13:03:16';101230;;;9;32
30343;BME280;17145;49.902;8.680;'2023-04-03 13:05:45';101220;;;9;31
30343;BME280;17145;49.902;8.680;'2023-04-03 13:08:22';101210;;;9;31
30343;BME280;17145;49.902;8.680;'2023-04-03 13:10:55';101210;;;9;31
30343;BME280;17145;49.902;8.680;'2023-04-03 13:13:28';101220;;;10;31
30343;BME280;17145;49.902;8.680;'2023-04-03 13:15:57';101200;;;9;31
30343;BME280;17145;49.902;8.680;'2023-04-03 13:18:32';101200;;;9;31
30343;BME280;17145;49.902;8.680;'2023-04-03 13:21:04';101200;;;9;30
30343;BME280;17145;49.902;8.680;'2023-04-03 13:23:35';101200;;;10;31
30343;BME280;17145;49.902;8.680;'2023-04-03 13:26:10';101190;;;9;30
30343;BME280;17145;49.902;8.680;'2023-04-03 13:28:38';101190;;;10;31
30343;BME280;17145;49.902;8.680;'2023-04-03 13:31:16';101190;;;10;30
30343;BME280;17145;49.902;8.680;'2023-04-03 13:33:54';101200;;;11;30
30343;BME280;17145;49.902;8.680;'2023-04-03 13:36:25';101190;;;11;28
30343;BME280;17145;49.902;8.680;'2023-04-03 13:38:57';101190;;;10;28
30343;BME280;17145;49.902;8.680;'2023-04-03 13:41:27';101180;;;10;28
30343;BME280;17145;49.902;8.680;'2023-04-03 13:49:27';101170;;;11;28
30343;BME280;17145;49.902;8.680;'2023-04-03 13:51:55';101170;;;11;27
30343;BME280;17145;49.902;8.680;'2023-04-03 13:57:23';101160;;;11;26
30343;BME280;17145;49.902;8.680;'2023-04-03 13:59:50';101180;;;10;27
30343;BME280;17145;49.902;8.680;'2023-04-03 14:08:05';101160;;;11;27
30343;BME280;17145;49.902;8.680;'2023-04-03 14:10:32';101150;;;11;26
30343;BME280;17145;49.902;8.680;'2023-04-03 14:18:25';101140;;;10;24
30343;BME280;17145;49.902;8.680;'2023-04-03 14:20:56';101150;;;10;24
30343;BME280;17145;49.902;8.680;'2023-04-03 14:23:27';101150;;;10;24
30343;BME280;17145;49.902;8.680;'2023-04-03 14:26:03';101150;;;10;25
30343;BME280;17145;49.902;8.680;'2023-04-03 14:28:37';101140;;;11;25
30343;BME280;17145;49.902;8.680;'2023-04-03 14:31:07';101130;;;11;24
30343;BME280;17145;49.902;8.680;'2023-04-03 14:33:51';101120;;;12;24
30343;BME280;17145;49.902;8.680;'2023-04-03 14:36:28';101120;;;12;23
30343;BME280;17145;49.902;8.680;'2023-04-03 14:39:06';101130;;;12;22
30343;BME280;17145;49.902;8.680;'2023-04-03 14:41:41';101120;;;12;22
30343;BME280;17145;49.902;8.680;'2023-04-03 14:44:32';101120;;;13;21
30343;BME280;17145;49.902;8.680;'2023-04-03 14:47:01';101120;;;13;21
30343;BME280;17145;49.902;8.680;'2023-04-03 14:49:39';101120;;;14;21
30343;BME280;17145;49.902;8.680;'2023-04-03 14:52:18';101110;;;14;20
30343;BME280;17145;49.902;8.680;'2023-04-03 14:54:47';101110;;;14;19
30343;BME280;17145;49.902;8.680;'2023-04-03 14:57:19';101110;;;14;19
30343;BME280;17145;49.902;8.680;'2023-04-03 14:59:48';101110;;;14;19
30343;BME280;17145;49.902;8.680;'2023-04-03 15:02:23';101100;;;14;18
30343;BME280;17145;49.902;8.680;'2023-04-03 15:04:53';101100;;;15;19
30343;BME280;17145;49.902;8.680;'2023-04-03 15:07:24';101100;;;15;18
30343;BME280;17145;49.902;8.680;'2023-04-03 15:09:59';101100;;;15;18
30343;BME280;17145;49.902;8.680;'2023-04-03 15:12:26';101100;;;15;19
30343;BME280;17145;49.902;8.680;'2023-04-03 15:14:56';101100;;;15;18
30343;BME280;17145;49.902;8.680;'2023-04-03 15:17:25';101080;;;15;19
30343;BME280;17145;49.902;8.680;'2023-04-03 15:19:54';101100;;;15;19
30343;BME280;17145;49.902;8.680;'2023-04-03 15:22:30';101090;;;15;19
30343;BME280;17145;49.902;8.680;'2023-04-03 15:25:01';101090;;;16;18
30343;BME280;17145;49.902;8.680;'2023-04-03 15:27:31';101090;;;15;19
30343;BME280;17145;49.902;8.680;'2023-04-03 15:30:01';101090;;;15;20
30343;BME280;17145;49.902;8.680;'2023-04-03 15:32:31';101090;;;15;19
30343;BME280;17145;49.902;8.680;'2023-04-03 15:34:59';101070;;;15;18
30343;BME280;17145;49.902;8.680;'2023-04-03 15:37:29';101080;;;15;19
30343;BME280;17145;49.902;8.680;'2023-04-03 15:40:00';101080;;;15;19
30343;BME280;17145;49.902;8.680;'2023-04-03 15:42:29';101090;;;14;19
30343;BME280;17145;49.902;8.680;'2023-04-03 15:45:11';101070;;;15;20
30343;BME280;17145;49.902;8.680;'2023-04-03 15:47:40';101080;;;15;19
30343;BME280;17145;49.902;8.680;'2023-04-03 15:50:15';101080;;;13;19
30343;BME280;17145;49.902;8.680;'2023-04-03 15:52:46';101080;;;14;19
30343;BME280;17145;49.902;8.680;'2023-04-03 15:55:21';101080;;;14;19
30343;BME280;17145;49.902;8.680;'2023-04-03 15:57:53';101080;;;14;19
30343;BME280;17145;49.902;8.680;'2023-04-03 16:00:31';101070;;;16;19
30343;BME280;17145;49.902;8.680;'2023-04-03 16:02:59';101070;;;16;18
30343;BME280;17145;49.902;8.680;'2023-04-03 16:05:27';101080;;;16;18
30343;BME280;17145;49.902;8.680;'2023-04-03 16:07:54';101070;;;16;16
30343;BME280;17145;49.902;8.680;'2023-04-03 16:10:22';101080;;;16;17
30343;BME280;17145;49.902;8.680;'2023-04-03 16:12:50';101070;;;16;16
30343;BME280;17145;49.902;8.680;'2023-04-03 16:15:22';101060;;;16;18
30343;BME280;17145;49.902;8.680;'2023-04-03 16:17:50';101060;;;16;18
30343;BME280;17145;49.902;8.680;'2023-04-03 16:20:20';101050;;;17;17
30343;BME280;17145;49.902;8.680;'2023-04-03 16:22:48';101060;;;17;17
30343;BME280;17145;49.902;8.680;'2023-04-03 16:25:17';101050;;;17;17
30343;BME280;17145;49.902;8.680;'2023-04-03 16:27:47';101050;;;18;16
30343;BME280;17145;49.902;8.680;'2023-04-03 16:30:17';101050;;;17;17
30343;BME280;17145;49.902;8.680;'2023-04-03 16:32:45';101050;;;16;16
30343;BME280;17145;49.902;8.680;'2023-04-03 16:35:13';101060;;;16;17
30343;BME280;17145;49.902;8.680;'2023-04-03 16:37:40';101040;;;17;17
30343;BME280;17145;49.902;8.680;'2023-04-03 16:40:12';101040;;;17;17
30343;BME280;17145;49.902;8.680;'2023-04-03 16:42:40';101030;;;17;17
30343;BME280;17145;49.902;8.680;'2023-04-03 16:45:10';101030;;;18;17
30343;BME280;17145;49.902;8.680;'2023-04-03 16:47:43';101020;;;19;16
30343;BME280;17145;49.902;8.680;'2023-04-03 16:50:15';101030;;;19;15
30343;BME280;17145;49.902;8.680;'2023-04-03 16:52:44';101030;;;18;16